createdAt,value
2022-12-12T00:02:57.869Z,-3.02
2022-12-12T00:07:58.756Z,-3.04
2022-12-12T00:12:59.586Z,-3.04
2022-12-12T00:18:01.736Z,-3.05
2022-12-12T00:23:02.565Z,-2.98
2022-12-12T00:28:03.467Z,-2.94
2022-12-12T00:33:05.695Z,-2.92
2022-12-12T00:38:06.552Z,-2.96
2022-12-12T00:43:07.360Z,-2.90
2022-12-12T00:48:10.603Z,-2.94
2022-12-12T00:53:13.193Z,-2.96
2022-12-12T00:58:14.016Z,-2.92
2022-12-12T01:03:16.193Z,-2.92
2022-12-12T01:08:17.030Z,-2.88
2022-12-12T01:13:17.914Z,-2.89
2022-12-12T01:18:20.653Z,-2.89
2022-12-12T01:23:21.441Z,-2.92
2022-12-12T01:28:22.246Z,-2.87
2022-12-12T01:33:24.378Z,-2.83
2022-12-12T01:38:25.697Z,-2.89
2022-12-12T01:43:30.076Z,-2.87
2022-12-12T01:48:36.464Z,-2.79
2022-12-12T01:53:37.714Z,-2.81
2022-12-12T01:58:40.131Z,-2.77
2022-12-12T02:03:43.639Z,-2.75
2022-12-12T02:08:46.732Z,-2.71
2022-12-12T02:13:48.417Z,-2.82
2022-12-12T02:18:58.240Z,-2.87
2022-12-12T02:24:25.937Z,-2.87
2022-12-12T02:29:52.928Z,-2.88
2022-12-12T02:35:04.847Z,-2.89
2022-12-12T02:40:15.055Z,-2.86
2022-12-12T02:45:23.917Z,-2.86
2022-12-12T02:50:29.078Z,-2.86
2022-12-12T02:55:35.017Z,-2.88
2022-12-12T03:00:48.860Z,-2.83
2022-12-12T03:06:15.093Z,-2.84
2022-12-12T03:11:25.074Z,-2.81
2022-12-12T03:16:29.825Z,-2.77
2022-12-12T03:21:39.202Z,-2.82
2022-12-12T03:26:47.777Z,-2.79
2022-12-12T03:31:55.309Z,-2.74
2022-12-12T03:37:02.278Z,-2.67
2022-12-12T03:42:09.718Z,-2.65
2022-12-12T03:47:14.105Z,-2.54
2022-12-12T03:52:22.565Z,-2.66
2022-12-12T03:57:28.271Z,-2.64
2022-12-12T04:02:35.924Z,-2.63
2022-12-12T04:07:42.971Z,-2.59
2022-12-12T04:13:00.622Z,-2.64
2022-12-12T04:18:14.937Z,-2.57
2022-12-12T04:23:25.218Z,-2.57
2022-12-12T04:28:29.415Z,-2.73
2022-12-12T04:33:39.758Z,-2.69
2022-12-12T04:38:45.763Z,-2.64
2022-12-12T04:43:49.200Z,-2.69
2022-12-12T04:48:54.017Z,-2.85
2022-12-12T04:54:03.664Z,-2.78
2022-12-12T04:59:05.827Z,-2.69
2022-12-12T05:04:11.129Z,-2.74
2022-12-12T05:09:14.594Z,-2.73
2022-12-12T05:14:17.096Z,-2.68
2022-12-12T05:19:17.953Z,-2.69
2022-12-12T05:24:20.116Z,-2.70
2022-12-12T05:29:20.896Z,-2.71
2022-12-12T05:34:21.672Z,-2.68
2022-12-12T05:39:25.249Z,-2.73
2022-12-12T05:44:26.089Z,-2.71
2022-12-12T05:49:26.996Z,-2.65
2022-12-12T05:54:29.154Z,-2.73
2022-12-12T05:59:31.011Z,-2.65
2022-12-12T06:04:31.950Z,-2.68
2022-12-12T06:09:34.332Z,-2.72
2022-12-12T06:14:35.125Z,-2.67
2022-12-12T06:19:35.893Z,-2.67
2022-12-12T06:24:38.073Z,-2.61
2022-12-12T06:29:38.857Z,-2.59
2022-12-12T06:34:40.003Z,-2.60
2022-12-12T06:39:43.229Z,-2.62
2022-12-12T06:44:44.434Z,-2.62
2022-12-12T06:49:45.292Z,-2.59
2022-12-12T06:54:47.517Z,-2.56
2022-12-12T06:59:51.000Z,-2.47
2022-12-12T07:04:51.800Z,-2.53
2022-12-12T07:09:53.966Z,-2.50
2022-12-12T07:14:54.994Z,-2.49
2022-12-12T07:19:55.781Z,-2.50
2022-12-12T07:24:58.236Z,-2.52
2022-12-12T07:29:59.013Z,-2.49
2022-12-12T07:35:01.843Z,-2.53
2022-12-12T07:40:04.145Z,-2.51
2022-12-12T07:45:05.620Z,-2.53
2022-12-12T07:50:08.112Z,-2.42
2022-12-12T07:55:12.364Z,-2.39
2022-12-12T08:00:14.477Z,-2.34
2022-12-12T08:05:15.818Z,-2.33
2022-12-12T08:10:18.458Z,-2.37
2022-12-12T08:15:19.415Z,-2.32
2022-12-12T08:20:20.265Z,-2.22
2022-12-12T08:25:22.528Z,-2.20
2022-12-12T08:30:23.307Z,-2.11
2022-12-12T08:35:24.431Z,-2.01
2022-12-12T08:40:26.573Z,-2.08
2022-12-12T08:45:27.443Z,-2.02
2022-12-12T08:50:28.723Z,-2.12
2022-12-12T08:55:31.596Z,-2.14
2022-12-12T09:00:32.411Z,-2.29
2022-12-12T09:05:33.371Z,-2.14
2022-12-12T09:10:35.625Z,-2.06
2022-12-12T09:15:37.220Z,-2.03
2022-12-12T09:20:38.064Z,-1.99
2022-12-12T09:25:42.747Z,-1.96
2022-12-12T09:30:44.767Z,-1.82
2022-12-12T09:35:46.037Z,-1.68
2022-12-12T09:40:55.556Z,-1.66
2022-12-12T09:45:57.096Z,-1.63
2022-12-12T09:51:00.355Z,-1.74
2022-12-12T09:56:11.114Z,-1.83
2022-12-12T10:01:22.784Z,-1.78
2022-12-12T10:06:39.664Z,-1.82
2022-12-12T10:11:54.454Z,-1.86
2022-12-12T10:16:58.268Z,-1.90
2022-12-12T10:22:05.522Z,-1.87
2022-12-12T10:27:12.365Z,-1.82
2022-12-12T10:32:23.236Z,-1.86
2022-12-12T10:37:37.915Z,-1.87
2022-12-12T10:42:47.145Z,-2.01
2022-12-12T10:47:48.726Z,-1.89
2022-12-12T10:52:50.417Z,-1.82
2022-12-12T10:58:03.832Z,-1.87
2022-12-12T11:03:21.355Z,-1.86
2022-12-12T11:08:27.570Z,-1.80
2022-12-12T11:13:30.620Z,-1.75
2022-12-12T11:18:31.689Z,-1.65
2022-12-12T11:23:33.808Z,-1.60
2022-12-12T11:28:39.869Z,-1.57
2022-12-12T11:33:46.473Z,-1.67
2022-12-12T11:38:52.591Z,-1.58
2022-12-12T11:44:01.490Z,-1.59
2022-12-12T11:49:04.555Z,-1.51
2022-12-12T11:54:12.279Z,-1.48
2022-12-12T11:59:26.681Z,-1.40
2022-12-12T12:04:49.565Z,-1.47
2022-12-12T12:10:02.739Z,-1.53
2022-12-12T12:15:19.492Z,-1.49
2022-12-12T12:20:26.655Z,-1.52
2022-12-12T12:25:47.737Z,-1.48
2022-12-12T12:30:59.780Z,-1.34
2022-12-12T12:36:15.099Z,-1.23
2022-12-12T12:41:35.758Z,-1.31
2022-12-12T12:46:46.963Z,-1.36
2022-12-12T12:51:54.001Z,-1.29
2022-12-12T12:57:00.693Z,-1.37
2022-12-12T13:02:12.091Z,-1.32
2022-12-12T13:07:19.513Z,-1.30
2022-12-12T13:12:29.970Z,-1.26
2022-12-12T13:17:45.388Z,-1.28
2022-12-12T13:22:56.650Z,-1.26
2022-12-12T13:28:01.793Z,-1.23
2022-12-12T13:33:20.647Z,-1.28
2022-12-12T13:38:24.641Z,-1.28
2022-12-12T13:43:36.169Z,-1.29
2022-12-12T13:48:46.796Z,-1.25
2022-12-12T13:53:48.069Z,-1.19
2022-12-12T13:58:48.839Z,-1.15
2022-12-12T14:03:51.212Z,-1.01
2022-12-12T14:08:52.943Z,-0.79
2022-12-12T14:14:05.906Z,-1.04
2022-12-12T14:19:22.020Z,-1.10
2022-12-12T14:25:02.740Z,-1.34
2022-12-12T14:30:17.585Z,-1.38
2022-12-12T14:35:30.862Z,-1.38
2022-12-12T14:40:34.366Z,-1.57
2022-12-12T14:45:38.910Z,-1.64
2022-12-12T14:50:45.054Z,-1.69
2022-12-12T14:55:55.636Z,-1.72
2022-12-12T15:00:59.320Z,-1.79
2022-12-12T15:06:37.005Z,-1.82
2022-12-12T15:11:39.365Z,-1.89
2022-12-12T15:16:48.026Z,-2.09
2022-12-12T15:21:49.713Z,-2.16
2022-12-12T15:26:55.012Z,-2.26
2022-12-12T15:32:00.982Z,-2.39
2022-12-12T15:37:23.089Z,-2.45
2022-12-12T15:42:25.656Z,-2.44
2022-12-12T15:47:26.566Z,-2.49
2022-12-12T15:52:30.656Z,-2.50
2022-12-12T15:57:44.634Z,-2.53
2022-12-12T16:02:58.893Z,-2.49
2022-12-12T16:08:32.034Z,-2.65
2022-12-12T16:13:39.624Z,-2.67
2022-12-12T16:18:41.809Z,-2.83
2022-12-12T16:23:43.400Z,-2.81
2022-12-12T16:28:45.563Z,-2.82
2022-12-12T16:33:46.529Z,-2.80
2022-12-12T16:38:47.347Z,-2.79
2022-12-12T16:43:49.852Z,-2.79
2022-12-12T16:48:51.164Z,-2.74
2022-12-12T16:53:52.040Z,-2.65
2022-12-12T16:58:56.111Z,-2.70
2022-12-12T17:03:57.352Z,-2.65
2022-12-12T17:08:58.202Z,-2.62
2022-12-12T17:14:00.825Z,-2.60
2022-12-12T17:19:01.594Z,-2.54
2022-12-12T17:24:02.378Z,-2.46
2022-12-12T17:29:05.149Z,-2.55
2022-12-12T17:34:06.655Z,-2.52
2022-12-12T17:39:07.660Z,-2.54
2022-12-12T17:44:10.005Z,-2.60
2022-12-12T17:49:10.880Z,-2.73
2022-12-12T17:54:11.872Z,-2.61
2022-12-12T17:59:14.074Z,-2.63
2022-12-12T18:04:15.031Z,-2.64
2022-12-12T18:09:17.794Z,-2.60
2022-12-12T18:14:20.199Z,-2.65
2022-12-12T18:19:22.662Z,-2.65
2022-12-12T18:24:25.201Z,-2.62
2022-12-12T18:29:28.381Z,-2.56
2022-12-12T18:34:29.425Z,-2.67
2022-12-12T18:39:30.280Z,-2.63
2022-12-12T18:44:32.501Z,-2.63
2022-12-12T18:49:33.344Z,-2.65
2022-12-12T18:54:36.149Z,-2.67
2022-12-12T18:59:38.613Z,-2.74
2022-12-12T19:04:39.707Z,-2.75
2022-12-12T19:09:41.224Z,-2.76
2022-12-12T19:15:15.075Z,-2.81
2022-12-12T19:20:05.273Z,-2.84
2022-12-12T19:25:07.026Z,-2.77
2022-12-12T19:30:11.234Z,-2.76
2022-12-12T19:35:12.230Z,-2.76
2022-12-12T19:40:13.787Z,-2.75
2022-12-12T19:45:16.582Z,-2.69
2022-12-12T19:50:17.764Z,-2.68
2022-12-12T19:55:19.117Z,-2.71
2022-12-12T20:00:21.509Z,-2.65
2022-12-12T20:05:22.559Z,-2.68
2022-12-12T20:10:23.442Z,-2.64
2022-12-12T20:15:25.651Z,-2.67
2022-12-12T20:20:26.634Z,-2.67
2022-12-12T20:25:27.569Z,-2.70
2022-12-12T20:30:29.751Z,-2.66
2022-12-12T20:35:30.560Z,-2.67
2022-12-12T20:40:31.390Z,-2.67
2022-12-12T20:45:37.494Z,-2.63
2022-12-12T20:50:38.307Z,-2.61
2022-12-12T20:55:39.279Z,-2.61
2022-12-12T21:00:41.613Z,-2.58
2022-12-12T21:05:42.728Z,-2.56
2022-12-12T21:10:43.512Z,-2.59
2022-12-12T21:15:46.122Z,-2.67
2022-12-12T21:20:47.260Z,-2.63
2022-12-12T21:25:48.091Z,-2.56
2022-12-12T21:30:50.411Z,-2.56
2022-12-12T21:35:51.236Z,-2.64
2022-12-12T21:40:53.247Z,-2.68
2022-12-12T21:45:55.387Z,-2.65
2022-12-12T21:50:59.815Z,-2.62
2022-12-12T21:56:04.980Z,-2.67
2022-12-12T22:01:09.465Z,-2.62
2022-12-12T22:06:11.978Z,-2.70
2022-12-12T22:11:12.833Z,-2.70
2022-12-12T22:16:18.864Z,-2.66
2022-12-12T22:21:22.422Z,-2.71
2022-12-12T22:26:25.785Z,-2.73
2022-12-12T22:31:29.697Z,-2.71
2022-12-12T22:36:32.828Z,-2.67
2022-12-12T22:41:34.110Z,-2.67
2022-12-12T22:46:42.197Z,-2.64
2022-12-12T22:51:45.943Z,-2.60
2022-12-12T22:56:47.231Z,-2.60
2022-12-12T23:01:49.470Z,-2.62
2022-12-12T23:06:50.413Z,-2.64
2022-12-12T23:11:51.237Z,-2.58
2022-12-12T23:16:54.486Z,-2.66
2022-12-12T23:21:55.287Z,-2.53
2022-12-12T23:26:56.146Z,-2.64
2022-12-12T23:32:02.943Z,-2.56
2022-12-12T23:37:03.873Z,-2.56
2022-12-12T23:42:04.703Z,-2.60
2022-12-12T23:47:06.908Z,-2.65
2022-12-12T23:52:07.862Z,-2.63
2022-12-12T23:57:09.227Z,-2.63
